Accueil
METAR-TAF:

METAR-TAF

Aéroports :

Aérodrome de Touho

Touho, Nouvelle-Calédonie

latitude: 20-47-25S, longitude: 165-15-34E, altitude: 3 m

METAR: absent

Heure: 21:57 (10:57 UTC)

Prévision

Le bulletin a été fait il y a 17 heures et 57 minutes, à 17:00 UTC
Prévision valable du 21 à 18 UTC au 22 à 18 UTC
Vent 2 kt de direction variable
Visibilité 10 km ou plus
Nuages épars à une hauteur de 3000 ft
Nuages fragmentés à une hauteur de 6500 ft
Probabilité 30% :
Temporairement
du 21 à 18 UTC au 21 à 21 UTC
averses de pluie
Evoluant progressivement
du 21 à 22 UTC au 21 à 24 UTC
Vent 10 kt de est/sud-est
Evoluant progressivement
du 22 à 06 UTC au 22 à 08 UTC
Vent 5 kt de sud

TAF: NWWU 211700Z 2118/2218 VRB02KT 9999 SCT030 BKN065 PROB30 TEMPO 2118/2121 SHRA BECMG 2122/2124 11010KT BECMG 2206/2208 18005KT

Observations et prévisions météorologiques de plus de 4000 aéroports (messages METAR et TAF).

Les stations disponibles sont représentées par des disques jaunes et rouges sur la carte.

Passer la souris dessus pour voir le nom de la station.

Cliquer dessus pour voir les observations et prévisions météorologiques.

Pour changer de carte: cliquez sur les boutons verts avec une croix noire pour zoomer, sur le bouton vert avec un tiret pour effectuer un zoom arrière, ou sur les flèches vertes pour les cartes adjacentes.


METAR-TAF: